Time;durP1;ratioP1;P1;durP2;ratioP2;P2;SDS_P1;SDS_P2;PMS_P1;PMS_P2;Temp;Humidity;BMP_temperature;BMP_pressure;BME280_temperature;BME280_humidity;BME280_pressure;Samples;Min_cycle;Max_cycle;Signal;HPM_P1;HPM_P2
2019/04/30 00:00:40;;;;;;;15.65;11.75;;;;;;;6.35;82.76465;95377.58;;;;
2019/04/30 00:01:56;;;;;;;14.95;12.8;;;;;;;6.29;82.81738;95373.49;;;;
2019/04/30 00:03:01;;;;;;;14.95;12.8;;;;;;;6.29;82.81738;95373.49;;;;
2019/04/30 00:04:11;;;;;;;14.95;12.8;;;;;;;6.29;82.81738;95373.49;;;;
2019/04/30 00:05:12;;;;;;;14.95;12.8;;;;;;;6.29;82.81738;95373.49;;;;
2019/04/30 00:06:13;;;;;;;14.95;12.8;;;;;;;6.29;82.81738;95373.49;;;;
2019/04/30 00:07:14;;;;;;;14.95;12.8;;;;;;;6.29;82.81738;95373.49;;;;
2019/04/30 00:08:15;;;;;;;14.95;12.8;;;;;;;6.29;82.81738;95373.49;;;;
2019/04/30 00:09:20;;;;;;;14.95;12.8;;;;;;;6.29;82.81738;95373.49;;;;
2019/04/30 00:10:21;;;;;;;14.95;12.8;;;;;;;6.29;82.81738;95373.49;;;;
2019/04/30 00:11:22;;;;;;;15.5;12.35;;;;;;;6.38;83.25684;95362.94;;;;
2019/04/30 00:12:23;;;;;;;15.5;12.35;;;;;;;6.38;83.25684;95362.94;;;;
2019/04/30 00:13:24;;;;;;;15.5;12.35;;;;;;;6.38;83.25684;95362.94;;;;
2019/04/30 00:14:25;;;;;;;15.5;12.35;;;;;;;6.38;83.25684;95362.94;;;;
2019/04/30 00:15:27;;;;;;;15.5;12.35;;;;;;;6.38;83.25684;95362.94;;;;
2019/04/30 00:16:28;;;;;;;15.5;12.35;;;;;;;6.38;83.25684;95362.94;;;;
2019/04/30 00:17:29;;;;;;;15.5;12.35;;;;;;;6.38;83.25684;95362.94;;;;
2019/04/30 00:18:30;;;;;;;15.5;12.35;;;;;;;6.38;83.25684;95362.94;;;;
2019/04/30 00:19:31;;;;;;;15.5;12.35;;;;;;;6.38;83.25684;95362.94;;;;
2019/04/30 00:20:32;;;;;;;15.5;12.35;;;;;;;6.38;83.25684;95362.94;;;;
2019/04/30 00:21:33;;;;;;;15.5;12.35;;;;;;;6.38;83.25684;95362.94;;;;
2019/04/30 00:22:34;;;;;;;15.75;12.65;;;;;;;6.32;83.48828;95332;;;;
2019/04/30 00:23:35;;;;;;;15.75;12.65;;;;;;;6.32;83.48828;95332;;;;
2019/04/30 00:24:37;;;;;;;15.75;12.65;;;;;;;6.32;83.48828;95332;;;;
2019/04/30 00:25:38;;;;;;;15.75;12.65;;;;;;;6.32;83.48828;95332;;;;
2019/04/30 00:26:39;;;;;;;15.75;12.65;;;;;;;6.32;83.48828;95332;;;;
2019/04/30 00:27:40;;;;;;;15.75;12.65;;;;;;;6.32;83.48828;95332;;;;
2019/04/30 00:28:41;;;;;;;15.75;12.65;;;;;;;6.32;83.48828;95332;;;;
2019/04/30 00:29:42;;;;;;;15.75;12.65;;;;;;;6.32;83.48828;95332;;;;
2019/04/30 00:30:43;;;;;;;15.75;12.65;;;;;;;6.32;83.48828;95332;;;;
2019/04/30 00:31:44;;;;;;;15.75;12.65;;;;;;;6.32;83.48828;95332;;;;
2019/04/30 00:32:45;;;;;;;17.25;13.95;;;;;;;6.31;83.47656;95336.15;;;;
2019/04/30 00:33:46;;;;;;;17.25;13.95;;;;;;;6.31;83.47656;95336.15;;;;
2019/04/30 00:34:47;;;;;;;17.25;13.95;;;;;;;6.31;83.47656;95336.15;;;;
2019/04/30 00:35:48;;;;;;;17.25;13.95;;;;;;;6.31;83.47656;95336.15;;;;
2019/04/30 00:36:49;;;;;;;17.25;13.95;;;;;;;6.31;83.47656;95336.15;;;;
2019/04/30 00:37:51;;;;;;;17.25;13.95;;;;;;;6.31;83.47656;95336.15;;;;
2019/04/30 00:38:52;;;;;;;17.25;13.95;;;;;;;6.31;83.47656;95336.15;;;;
2019/04/30 00:39:53;;;;;;;17.25;13.95;;;;;;;6.31;83.47656;95336.15;;;;
2019/04/30 00:40:54;;;;;;;17.25;13.95;;;;;;;6.31;83.47656;95336.15;;;;
2019/04/30 00:41:55;;;;;;;17.25;13.95;;;;;;;6.31;83.47656;95336.15;;;;
2019/04/30 00:42:56;;;;;;;17.25;13.95;;;;;;;6.31;83.47656;95336.15;;;;
2019/04/30 00:43:57;;;;;;;19.55;15.5;;;;;;;6.27;83.53223;95328.2;;;;
2019/04/30 00:44:58;;;;;;;19.55;15.5;;;;;;;6.27;83.53223;95328.2;;;;
2019/04/30 00:45:59;;;;;;;19.55;15.5;;;;;;;6.27;83.53223;95328.2;;;;
2019/04/30 00:47:00;;;;;;;19.55;15.5;;;;;;;6.27;83.53223;95328.2;;;;
2019/04/30 00:48:01;;;;;;;19.55;15.5;;;;;;;6.27;83.53223;95328.2;;;;
2019/04/30 00:49:02;;;;;;;19.55;15.5;;;;;;;6.27;83.53223;95328.2;;;;
2019/04/30 00:50:04;;;;;;;19.55;15.5;;;;;;;6.27;83.53223;95328.2;;;;
2019/04/30 00:51:05;;;;;;;19.55;15.5;;;;;;;6.27;83.53223;95328.2;;;;
2019/04/30 00:52:06;;;;;;;19.55;15.5;;;;;;;6.27;83.53223;95328.2;;;;
2019/04/30 00:53:07;;;;;;;19.55;15.5;;;;;;;6.27;83.53223;95328.2;;;;
2019/04/30 00:54:08;;;;;;;20.95;16.2;;;;;;;6.3;83.78125;95327.27;;;;
2019/04/30 00:55:09;;;;;;;20.95;16.2;;;;;;;6.3;83.78125;95327.27;;;;
2019/04/30 00:56:10;;;;;;;20.95;16.2;;;;;;;6.3;83.78125;95327.27;;;;
2019/04/30 00:57:11;;;;;;;20.95;16.2;;;;;;;6.3;83.78125;95327.27;;;;
2019/04/30 00:58:12;;;;;;;20.95;16.2;;;;;;;6.3;83.78125;95327.27;;;;
2019/04/30 00:59:13;;;;;;;20.95;16.2;;;;;;;6.3;83.78125;95327.27;;;;
2019/04/30 01:00:14;;;;;;;20.95;16.2;;;;;;;6.3;83.78125;95327.27;;;;
2019/04/30 01:06:09;;;;;;;20.95;16.2;;;;;;;6.3;83.78125;95327.27;;;;
2019/04/30 01:07:11;;;;;;;20.95;16.2;;;;;;;6.3;83.78125;95327.27;;;;
2019/04/30 01:08:12;;;;;;;20.95;16.2;;;;;;;6.3;83.78125;95327.27;;;;
2019/04/30 01:09:13;;;;;;;20.95;16.2;;;;;;;6.3;83.78125;95327.27;;;;
2019/04/30 01:10:14;;;;;;;20.95;16.2;;;;;;;6.3;83.78125;95327.27;;;;
2019/04/30 01:11:15;;;;;;;20.95;16.2;;;;;;;6.3;83.78125;95327.27;;;;
2019/04/30 01:12:17;;;;;;;20.95;16.2;;;;;;;6.3;83.78125;95327.27;;;;
2019/04/30 01:13:18;;;;;;;20.95;16.2;;;;;;;6.3;83.78125;95327.27;;;;
2019/04/30 01:14:19;;;;;;;20.95;16.2;;;;;;;6.3;83.78125;95327.27;;;;
2019/04/30 01:15:20;;;;;;;24.4;18.05;;;;;;;6.33;84.21973;95309.95;;;;
2019/04/30 01:16:21;;;;;;;24.4;18.05;;;;;;;6.33;84.21973;95309.95;;;;
2019/04/30 01:17:22;;;;;;;24.4;18.05;;;;;;;6.33;84.21973;95309.95;;;;
2019/04/30 01:18:23;;;;;;;24.4;18.05;;;;;;;6.33;84.21973;95309.95;;;;
2019/04/30 01:19:24;;;;;;;24.4;18.05;;;;;;;6.33;84.21973;95309.95;;;;
2019/04/30 01:20:26;;;;;;;24.4;18.05;;;;;;;6.33;84.21973;95309.95;;;;
2019/04/30 01:21:27;;;;;;;24.4;18.05;;;;;;;6.33;84.21973;95309.95;;;;
2019/04/30 01:22:28;;;;;;;24.4;18.05;;;;;;;6.33;84.21973;95309.95;;;;
2019/04/30 01:23:29;;;;;;;24.4;18.05;;;;;;;6.33;84.21973;95309.95;;;;
2019/04/30 01:24:30;;;;;;;24.4;18.05;;;;;;;6.33;84.21973;95309.95;;;;
2019/04/30 01:25:31;;;;;;;24.4;18.05;;;;;;;6.33;84.21973;95309.95;;;;
2019/04/30 01:26:32;;;;;;;24.4;18.05;;;;;;;6.33;84.21973;95309.95;;;;
2019/04/30 01:27:33;;;;;;;24.4;18.05;;;;;;;6.33;84.21973;95309.95;;;;
2019/04/30 01:28:35;;;;;;;24.4;18.05;;;;;;;6.33;84.21973;95309.95;;;;
2019/04/30 01:29:36;;;;;;;24.4;18.05;;;;;;;6.33;84.21973;95309.95;;;;
2019/04/30 01:30:37;;;;;;;24.4;18.05;;;;;;;6.33;84.21973;95309.95;;;;
2019/04/30 01:31:38;;;;;;;24.4;18.05;;;;;;;6.33;84.21973;95309.95;;;;
2019/04/30 01:32:39;;;;;;;24.4;18.05;;;;;;;6.33;84.21973;95309.95;;;;
2019/04/30 01:33:40;;;;;;;24.4;18.05;;;;;;;6.33;84.21973;95309.95;;;;
2019/04/30 01:34:42;;;;;;;24.4;18.05;;;;;;;6.33;84.21973;95309.95;;;;
2019/04/30 01:35:43;;;;;;;24.4;18.05;;;;;;;6.33;84.21973;95309.95;;;;
2019/04/30 01:36:44;;;;;;;27.35;20.3;;;;;;;6.33;84.68457;95273.35;;;;
2019/04/30 01:37:45;;;;;;;27.35;20.3;;;;;;;6.33;84.68457;95273.35;;;;
2019/04/30 01:38:46;;;;;;;27.35;20.3;;;;;;;6.33;84.68457;95273.35;;;;
2019/04/30 01:39:47;;;;;;;27.35;20.3;;;;;;;6.33;84.68457;95273.35;;;;
2019/04/30 01:40:49;;;;;;;27.35;20.3;;;;;;;6.33;84.68457;95273.35;;;;
2019/04/30 01:41:50;;;;;;;27.35;20.3;;;;;;;6.33;84.68457;95273.35;;;;
2019/04/30 01:42:51;;;;;;;27.35;20.3;;;;;;;6.33;84.68457;95273.35;;;;
2019/04/30 01:43:53;;;;;;;27.35;20.3;;;;;;;6.33;84.68457;95273.35;;;;
2019/04/30 01:44:54;;;;;;;27.35;20.3;;;;;;;6.33;84.68457;95273.35;;;;
2019/04/30 01:45:55;;;;;;;27.35;20.3;;;;;;;6.33;84.68457;95273.35;;;;
2019/04/30 01:46:56;;;;;;;26.85;20.05;;;;;;;6.3;84.74219;95261.58;;;;
2019/04/30 01:47:57;;;;;;;26.85;20.05;;;;;;;6.3;84.74219;95261.58;;;;
2019/04/30 01:48:58;;;;;;;26.85;20.05;;;;;;;6.3;84.74219;95261.58;;;;
2019/04/30 01:50:00;;;;;;;26.85;20.05;;;;;;;6.3;84.74219;95261.58;;;;
2019/04/30 01:51:01;;;;;;;26.85;20.05;;;;;;;6.3;84.74219;95261.58;;;;
2019/04/30 01:52:02;;;;;;;26.85;20.05;;;;;;;6.3;84.74219;95261.58;;;;
2019/04/30 01:53:03;;;;;;;26.85;20.05;;;;;;;6.3;84.74219;95261.58;;;;
2019/04/30 01:54:04;;;;;;;26.85;20.05;;;;;;;6.3;84.74219;95261.58;;;;
2019/04/30 01:55:05;;;;;;;26.85;20.05;;;;;;;6.3;84.74219;95261.58;;;;
2019/04/30 01:56:43;;;;;;;26.85;20.05;;;;;;;6.3;84.74219;95261.58;;;;
2019/04/30 01:58:00;;;;;;;27.05;21.1;;;;;;;6.37;85.06152;95257.12;;;;
2019/04/30 01:59:07;;;;;;;27.05;21.1;;;;;;;6.37;85.06152;95257.12;;;;
2019/04/30 02:00:15;;;;;;;27.05;21.1;;;;;;;6.37;85.06152;95257.12;;;;
2019/04/30 02:01:18;;;;;;;27.05;21.1;;;;;;;6.37;85.06152;95257.12;;;;
2019/04/30 02:02:21;;;;;;;27.05;21.1;;;;;;;6.37;85.06152;95257.12;;;;
2019/04/30 02:03:22;;;;;;;27.05;21.1;;;;;;;6.37;85.06152;95257.12;;;;
2019/04/30 02:04:23;;;;;;;27.05;21.1;;;;;;;6.37;85.06152;95257.12;;;;
2019/04/30 02:05:25;;;;;;;27.05;21.1;;;;;;;6.37;85.06152;95257.12;;;;
2019/04/30 02:06:26;;;;;;;27.05;21.1;;;;;;;6.37;85.06152;95257.12;;;;
2019/04/30 02:07:27;;;;;;;27.05;21.1;;;;;;;6.37;85.06152;95257.12;;;;
2019/04/30 02:08:29;;;;;;;25.6;19.85;;;;;;;6.37;85.11426;95258.87;;;;
2019/04/30 02:09:30;;;;;;;25.6;19.85;;;;;;;6.37;85.11426;95258.87;;;;
2019/04/30 02:10:31;;;;;;;25.6;19.85;;;;;;;6.37;85.11426;95258.87;;;;
2019/04/30 02:11:32;;;;;;;25.6;19.85;;;;;;;6.37;85.11426;95258.87;;;;
2019/04/30 02:12:34;;;;;;;25.6;19.85;;;;;;;6.37;85.11426;95258.87;;;;
2019/04/30 02:13:35;;;;;;;25.6;19.85;;;;;;;6.37;85.11426;95258.87;;;;
2019/04/30 02:14:36;;;;;;;25.6;19.85;;;;;;;6.37;85.11426;95258.87;;;;
2019/04/30 02:15:38;;;;;;;25.6;19.85;;;;;;;6.37;85.11426;95258.87;;;;
2019/04/30 02:16:40;;;;;;;25.6;19.85;;;;;;;6.37;85.11426;95258.87;;;;
2019/04/30 02:17:41;;;;;;;25.6;19.85;;;;;;;6.37;85.11426;95258.87;;;;
2019/04/30 02:18:42;;;;;;;25.15;19.5;;;;;;;6.43;85.32813;95256.7;;;;
2019/04/30 02:19:43;;;;;;;25.15;19.5;;;;;;;6.43;85.32813;95256.7;;;;
2019/04/30 02:20:44;;;;;;;25.15;19.5;;;;;;;6.43;85.32813;95256.7;;;;
2019/04/30 02:21:45;;;;;;;25.15;19.5;;;;;;;6.43;85.32813;95256.7;;;;
2019/04/30 02:22:46;;;;;;;25.15;19.5;;;;;;;6.43;85.32813;95256.7;;;;
2019/04/30 02:23:48;;;;;;;25.15;19.5;;;;;;;6.43;85.32813;95256.7;;;;
2019/04/30 02:24:49;;;;;;;25.15;19.5;;;;;;;6.43;85.32813;95256.7;;;;
2019/04/30 02:25:50;;;;;;;25.15;19.5;;;;;;;6.43;85.32813;95256.7;;;;
2019/04/30 02:26:51;;;;;;;25.15;19.5;;;;;;;6.43;85.32813;95256.7;;;;
2019/04/30 02:27:52;;;;;;;25.15;19.5;;;;;;;6.43;85.32813;95256.7;;;;
2019/04/30 02:28:53;;;;;;;25.15;19.5;;;;;;;6.43;85.32813;95256.7;;;;
2019/04/30 02:29:54;;;;;;;28.2;21;;;;;;;6.41;85.22949;95258.34;;;;
2019/04/30 02:30:55;;;;;;;28.2;21;;;;;;;6.41;85.22949;95258.34;;;;
2019/04/30 02:31:56;;;;;;;28.2;21;;;;;;;6.41;85.22949;95258.34;;;;
2019/04/30 02:32:57;;;;;;;28.2;21;;;;;;;6.41;85.22949;95258.34;;;;
2019/04/30 02:34:06;;;;;;;28.2;21;;;;;;;6.41;85.22949;95258.34;;;;
2019/04/30 02:35:17;;;;;;;28.2;21;;;;;;;6.41;85.22949;95258.34;;;;
2019/04/30 02:36:35;;;;;;;28.2;21;;;;;;;6.41;85.22949;95258.34;;;;
2019/04/30 02:37:37;;;;;;;28.2;21;;;;;;;6.41;85.22949;95258.34;;;;
2019/04/30 02:38:42;;;;;;;28.2;21;;;;;;;6.41;85.22949;95258.34;;;;
2019/04/30 02:39:43;;;;;;;28.2;21;;;;;;;6.41;85.22949;95258.34;;;;
2019/04/30 02:40:45;;;;;;;27.8;21.15;;;;;;;6.45;85.58301;95249.78;;;;
2019/04/30 02:41:46;;;;;;;27.8;21.15;;;;;;;6.45;85.58301;95249.78;;;;
2019/04/30 02:42:47;;;;;;;27.8;21.15;;;;;;;6.45;85.58301;95249.78;;;;
2019/04/30 02:43:48;;;;;;;27.8;21.15;;;;;;;6.45;85.58301;95249.78;;;;
2019/04/30 02:44:50;;;;;;;27.8;21.15;;;;;;;6.45;85.58301;95249.78;;;;
2019/04/30 02:45:51;;;;;;;27.8;21.15;;;;;;;6.45;85.58301;95249.78;;;;
2019/04/30 02:46:53;;;;;;;27.8;21.15;;;;;;;6.45;85.58301;95249.78;;;;
2019/04/30 02:47:54;;;;;;;27.8;21.15;;;;;;;6.45;85.58301;95249.78;;;;
2019/04/30 02:48:55;;;;;;;27.8;21.15;;;;;;;6.45;85.58301;95249.78;;;;
2019/04/30 02:49:57;;;;;;;27.8;21.15;;;;;;;6.45;85.58301;95249.78;;;;
2019/04/30 02:50:58;;;;;;;28.95;21.7;;;;;;;6.43;85.5791;95249.16;;;;
2019/04/30 02:51:59;;;;;;;28.95;21.7;;;;;;;6.43;85.5791;95249.16;;;;
2019/04/30 02:53:00;;;;;;;28.95;21.7;;;;;;;6.43;85.5791;95249.16;;;;
2019/04/30 02:54:01;;;;;;;28.95;21.7;;;;;;;6.43;85.5791;95249.16;;;;
2019/04/30 02:55:10;;;;;;;28.95;21.7;;;;;;;6.43;85.5791;95249.16;;;;
2019/04/30 02:56:42;;;;;;;28.95;21.7;;;;;;;6.43;85.5791;95249.16;;;;
2019/04/30 02:57:44;;;;;;;28.95;21.7;;;;;;;6.43;85.5791;95249.16;;;;
2019/04/30 02:58:45;;;;;;;28.95;21.7;;;;;;;6.43;85.5791;95249.16;;;;
2019/04/30 03:00:17;;;;;;;28.95;21.7;;;;;;;6.43;85.5791;95249.16;;;;
2019/04/30 03:01:19;;;;;;;29.8;22.6;;;;;;;6.44;85.66797;95234.2;;;;
2019/04/30 03:02:20;;;;;;;29.8;22.6;;;;;;;6.44;85.66797;95234.2;;;;
2019/04/30 03:03:21;;;;;;;29.8;22.6;;;;;;;6.44;85.66797;95234.2;;;;
2019/04/30 03:04:22;;;;;;;29.8;22.6;;;;;;;6.44;85.66797;95234.2;;;;
2019/04/30 03:05:23;;;;;;;29.8;22.6;;;;;;;6.44;85.66797;95234.2;;;;
2019/04/30 03:06:24;;;;;;;29.8;22.6;;;;;;;6.44;85.66797;95234.2;;;;
2019/04/30 03:07:25;;;;;;;29.8;22.6;;;;;;;6.44;85.66797;95234.2;;;;
2019/04/30 03:08:27;;;;;;;29.8;22.6;;;;;;;6.44;85.66797;95234.2;;;;
2019/04/30 03:09:28;;;;;;;29.8;22.6;;;;;;;6.44;85.66797;95234.2;;;;
2019/04/30 03:10:30;;;;;;;29.8;22.6;;;;;;;6.44;85.66797;95234.2;;;;
2019/04/30 03:11:31;;;;;;;29.8;22.6;;;;;;;6.44;85.66797;95234.2;;;;
2019/04/30 03:12:32;;;;;;;32.4;23.3;;;;;;;6.4;86.02832;95217.42;;;;
2019/04/30 03:13:33;;;;;;;32.4;23.3;;;;;;;6.4;86.02832;95217.42;;;;
2019/04/30 03:14:34;;;;;;;32.4;23.3;;;;;;;6.4;86.02832;95217.42;;;;
2019/04/30 03:15:35;;;;;;;32.4;23.3;;;;;;;6.4;86.02832;95217.42;;;;
2019/04/30 03:16:47;;;;;;;32.4;23.3;;;;;;;6.4;86.02832;95217.42;;;;
2019/04/30 03:17:55;;;;;;;32.4;23.3;;;;;;;6.4;86.02832;95217.42;;;;
2019/04/30 03:19:05;;;;;;;32.4;23.3;;;;;;;6.4;86.02832;95217.42;;;;
2019/04/30 03:20:19;;;;;;;32.4;23.3;;;;;;;6.4;86.02832;95217.42;;;;
2019/04/30 03:21:39;;;;;;;32.4;23.3;;;;;;;6.4;86.02832;95217.42;;;;
2019/04/30 03:22:40;;;;;;;34.55001;24.55;;;;;;;6.42;86.19043;95239.9;;;;
2019/04/30 03:23:41;;;;;;;34.55001;24.55;;;;;;;6.42;86.19043;95239.9;;;;
2019/04/30 03:24:42;;;;;;;34.55001;24.55;;;;;;;6.42;86.19043;95239.9;;;;
2019/04/30 03:25:43;;;;;;;34.55001;24.55;;;;;;;6.42;86.19043;95239.9;;;;
2019/04/30 03:26:45;;;;;;;34.55001;24.55;;;;;;;6.42;86.19043;95239.9;;;;
2019/04/30 03:27:46;;;;;;;34.55001;24.55;;;;;;;6.42;86.19043;95239.9;;;;
2019/04/30 03:28:47;;;;;;;34.55001;24.55;;;;;;;6.42;86.19043;95239.9;;;;
2019/04/30 03:29:48;;;;;;;34.55001;24.55;;;;;;;6.42;86.19043;95239.9;;;;
2019/04/30 03:30:49;;;;;;;34.55001;24.55;;;;;;;6.42;86.19043;95239.9;;;;
2019/04/30 03:31:50;;;;;;;34.55001;24.55;;;;;;;6.42;86.19043;95239.9;;;;
2019/04/30 03:32:51;;;;;;;34.75;24.8;;;;;;;6.39;86.50293;95229.07;;;;
2019/04/30 03:33:52;;;;;;;34.75;24.8;;;;;;;6.39;86.50293;95229.07;;;;
2019/04/30 03:34:53;;;;;;;34.75;24.8;;;;;;;6.39;86.50293;95229.07;;;;
2019/04/30 03:35:54;;;;;;;34.75;24.8;;;;;;;6.39;86.50293;95229.07;;;;
2019/04/30 03:36:55;;;;;;;34.75;24.8;;;;;;;6.39;86.50293;95229.07;;;;
2019/04/30 03:37:56;;;;;;;34.75;24.8;;;;;;;6.39;86.50293;95229.07;;;;
2019/04/30 03:38:58;;;;;;;34.75;24.8;;;;;;;6.39;86.50293;95229.07;;;;
2019/04/30 03:39:59;;;;;;;34.75;24.8;;;;;;;6.39;86.50293;95229.07;;;;
2019/04/30 03:41:00;;;;;;;34.75;24.8;;;;;;;6.39;86.50293;95229.07;;;;
2019/04/30 03:42:01;;;;;;;34.75;24.8;;;;;;;6.39;86.50293;95229.07;;;;
2019/04/30 03:43:02;;;;;;;34.75;24.8;;;;;;;6.39;86.50293;95229.07;;;;
2019/04/30 03:44:03;;;;;;;31.25;23.45;;;;;;;6.44;86.84863;95233.4;;;;
2019/04/30 03:45:04;;;;;;;31.25;23.45;;;;;;;6.44;86.84863;95233.4;;;;
2019/04/30 03:46:05;;;;;;;31.25;23.45;;;;;;;6.44;86.84863;95233.4;;;;
2019/04/30 03:47:06;;;;;;;31.25;23.45;;;;;;;6.44;86.84863;95233.4;;;;
2019/04/30 03:48:07;;;;;;;31.25;23.45;;;;;;;6.44;86.84863;95233.4;;;;
2019/04/30 03:49:08;;;;;;;31.25;23.45;;;;;;;6.44;86.84863;95233.4;;;;
2019/04/30 03:50:09;;;;;;;31.25;23.45;;;;;;;6.44;86.84863;95233.4;;;;
2019/04/30 03:51:10;;;;;;;31.25;23.45;;;;;;;6.44;86.84863;95233.4;;;;
2019/04/30 03:52:11;;;;;;;31.25;23.45;;;;;;;6.44;86.84863;95233.4;;;;
2019/04/30 03:53:13;;;;;;;31.25;23.45;;;;;;;6.44;86.84863;95233.4;;;;
2019/04/30 03:54:14;;;;;;;33.55;24.2;;;;;;;6.41;86.72852;95249.38;;;;
2019/04/30 03:55:15;;;;;;;33.55;24.2;;;;;;;6.41;86.72852;95249.38;;;;
2019/04/30 03:56:16;;;;;;;33.55;24.2;;;;;;;6.41;86.72852;95249.38;;;;
2019/04/30 03:57:17;;;;;;;33.55;24.2;;;;;;;6.41;86.72852;95249.38;;;;
2019/04/30 03:58:18;;;;;;;33.55;24.2;;;;;;;6.41;86.72852;95249.38;;;;
2019/04/30 03:59:19;;;;;;;33.55;24.2;;;;;;;6.41;86.72852;95249.38;;;;
2019/04/30 04:00:33;;;;;;;33.55;24.2;;;;;;;6.41;86.72852;95249.38;;;;
2019/04/30 04:01:49;;;;;;;33.55;24.2;;;;;;;6.41;86.72852;95249.38;;;;
2019/04/30 04:02:50;;;;;;;33.55;24.2;;;;;;;6.41;86.72852;95249.38;;;;
2019/04/30 04:04:29;;;;;;;33.55;24.2;;;;;;;6.41;86.72852;95249.38;;;;
2019/04/30 04:05:42;;;;;;;33.25;24.7;;;;;;;6.48;86.74219;95259.99;;;;
2019/04/30 04:06:46;;;;;;;33.25;24.7;;;;;;;6.48;86.74219;95259.99;;;;
2019/04/30 04:07:57;;;;;;;33.25;24.7;;;;;;;6.48;86.74219;95259.99;;;;
2019/04/30 04:09:05;;;;;;;33.25;24.7;;;;;;;6.48;86.74219;95259.99;;;;
2019/04/30 04:10:14;;;;;;;33.25;24.7;;;;;;;6.48;86.74219;95259.99;;;;
2019/04/30 04:11:21;;;;;;;33.25;24.7;;;;;;;6.48;86.74219;95259.99;;;;
2019/04/30 04:12:23;;;;;;;33.25;24.7;;;;;;;6.48;86.74219;95259.99;;;;
2019/04/30 04:13:24;;;;;;;33.25;24.7;;;;;;;6.48;86.74219;95259.99;;;;
2019/04/30 04:14:25;;;;;;;33.25;24.7;;;;;;;6.48;86.74219;95259.99;;;;
2019/04/30 04:15:26;;;;;;;34.35;24.9;;;;;;;6.49;86.92188;95255.03;;;;
2019/04/30 04:16:27;;;;;;;34.35;24.9;;;;;;;6.49;86.92188;95255.03;;;;
2019/04/30 04:17:28;;;;;;;34.35;24.9;;;;;;;6.49;86.92188;95255.03;;;;
2019/04/30 04:18:29;;;;;;;34.35;24.9;;;;;;;6.49;86.92188;95255.03;;;;
2019/04/30 04:19:30;;;;;;;34.35;24.9;;;;;;;6.49;86.92188;95255.03;;;;
2019/04/30 04:20:31;;;;;;;34.35;24.9;;;;;;;6.49;86.92188;95255.03;;;;
2019/04/30 04:21:33;;;;;;;34.35;24.9;;;;;;;6.49;86.92188;95255.03;;;;
2019/04/30 04:22:34;;;;;;;34.35;24.9;;;;;;;6.49;86.92188;95255.03;;;;
2019/04/30 04:23:35;;;;;;;34.35;24.9;;;;;;;6.49;86.92188;95255.03;;;;
2019/04/30 04:24:36;;;;;;;34.35;24.9;;;;;;;6.49;86.92188;95255.03;;;;
2019/04/30 04:25:37;;;;;;;34.35;24.9;;;;;;;6.49;86.92188;95255.03;;;;
2019/04/30 04:26:38;;;;;;;34.9;24.55;;;;;;;6.51;87.14844;95247.09;;;;
2019/04/30 04:27:39;;;;;;;34.9;24.55;;;;;;;6.51;87.14844;95247.09;;;;
2019/04/30 04:28:40;;;;;;;34.9;24.55;;;;;;;6.51;87.14844;95247.09;;;;
2019/04/30 04:29:41;;;;;;;34.9;24.55;;;;;;;6.51;87.14844;95247.09;;;;
2019/04/30 04:30:42;;;;;;;34.9;24.55;;;;;;;6.51;87.14844;95247.09;;;;
2019/04/30 04:31:43;;;;;;;34.9;24.55;;;;;;;6.51;87.14844;95247.09;;;;
2019/04/30 04:32:44;;;;;;;34.9;24.55;;;;;;;6.51;87.14844;95247.09;;;;
2019/04/30 04:33:45;;;;;;;34.9;24.55;;;;;;;6.51;87.14844;95247.09;;;;
2019/04/30 04:34:47;;;;;;;34.9;24.55;;;;;;;6.51;87.14844;95247.09;;;;
2019/04/30 04:35:48;;;;;;;34.9;24.55;;;;;;;6.51;87.14844;95247.09;;;;
2019/04/30 04:36:49;;;;;;;31.55;24.15;;;;;;;6.49;87.27148;95260.31;;;;
2019/04/30 04:37:50;;;;;;;31.55;24.15;;;;;;;6.49;87.27148;95260.31;;;;
2019/04/30 04:38:51;;;;;;;31.55;24.15;;;;;;;6.49;87.27148;95260.31;;;;
2019/04/30 04:39:52;;;;;;;31.55;24.15;;;;;;;6.49;87.27148;95260.31;;;;
2019/04/30 04:40:53;;;;;;;31.55;24.15;;;;;;;6.49;87.27148;95260.31;;;;
2019/04/30 04:41:54;;;;;;;31.55;24.15;;;;;;;6.49;87.27148;95260.31;;;;
2019/04/30 04:42:55;;;;;;;31.55;24.15;;;;;;;6.49;87.27148;95260.31;;;;
2019/04/30 04:43:56;;;;;;;31.55;24.15;;;;;;;6.49;87.27148;95260.31;;;;
2019/04/30 04:44:57;;;;;;;31.55;24.15;;;;;;;6.49;87.27148;95260.31;;;;
2019/04/30 04:45:58;;;;;;;31.55;24.15;;;;;;;6.49;87.27148;95260.31;;;;
2019/04/30 04:46:59;;;;;;;31.55;24.15;;;;;;;6.49;87.27148;95260.31;;;;
2019/04/30 04:48:00;;;;;;;32.65;23.75;;;;;;;6.53;87.52246;95253.59;;;;
2019/04/30 04:49:01;;;;;;;32.65;23.75;;;;;;;6.53;87.52246;95253.59;;;;
2019/04/30 04:50:03;;;;;;;32.65;23.75;;;;;;;6.53;87.52246;95253.59;;;;
2019/04/30 04:51:04;;;;;;;32.65;23.75;;;;;;;6.53;87.52246;95253.59;;;;
2019/04/30 04:52:05;;;;;;;32.65;23.75;;;;;;;6.53;87.52246;95253.59;;;;
2019/04/30 04:53:06;;;;;;;32.65;23.75;;;;;;;6.53;87.52246;95253.59;;;;
2019/04/30 04:54:07;;;;;;;32.65;23.75;;;;;;;6.53;87.52246;95253.59;;;;
2019/04/30 04:55:08;;;;;;;32.65;23.75;;;;;;;6.53;87.52246;95253.59;;;;
2019/04/30 04:56:09;;;;;;;32.65;23.75;;;;;;;6.53;87.52246;95253.59;;;;
2019/04/30 04:57:10;;;;;;;32.65;23.75;;;;;;;6.53;87.52246;95253.59;;;;
2019/04/30 04:58:12;;;;;;;32.89999;22.95;;;;;;;6.5;87.49707;95261.52;;;;
2019/04/30 04:59:13;;;;;;;32.89999;22.95;;;;;;;6.5;87.49707;95261.52;;;;
2019/04/30 05:00:14;;;;;;;32.89999;22.95;;;;;;;6.5;87.49707;95261.52;;;;
2019/04/30 05:01:15;;;;;;;32.89999;22.95;;;;;;;6.5;87.49707;95261.52;;;;
2019/04/30 05:02:39;;;;;;;32.89999;22.95;;;;;;;6.5;87.49707;95261.52;;;;
2019/04/30 05:03:42;;;;;;;32.89999;22.95;;;;;;;6.5;87.49707;95261.52;;;;
2019/04/30 05:04:43;;;;;;;32.89999;22.95;;;;;;;6.5;87.49707;95261.52;;;;
2019/04/30 05:05:44;;;;;;;32.89999;22.95;;;;;;;6.5;87.49707;95261.52;;;;
2019/04/30 05:06:45;;;;;;;32.89999;22.95;;;;;;;6.5;87.49707;95261.52;;;;
2019/04/30 05:07:46;;;;;;;32.89999;22.95;;;;;;;6.5;87.49707;95261.52;;;;
2019/04/30 05:08:47;;;;;;;30.85;22.05;;;;;;;6.56;87.55078;95257.08;;;;
2019/04/30 05:09:48;;;;;;;30.85;22.05;;;;;;;6.56;87.55078;95257.08;;;;
2019/04/30 05:10:49;;;;;;;30.85;22.05;;;;;;;6.56;87.55078;95257.08;;;;
2019/04/30 05:11:50;;;;;;;30.85;22.05;;;;;;;6.56;87.55078;95257.08;;;;
2019/04/30 05:12:51;;;;;;;30.85;22.05;;;;;;;6.56;87.55078;95257.08;;;;
2019/04/30 05:13:52;;;;;;;30.85;22.05;;;;;;;6.56;87.55078;95257.08;;;;
2019/04/30 05:14:53;;;;;;;30.85;22.05;;;;;;;6.56;87.55078;95257.08;;;;
2019/04/30 05:15:54;;;;;;;30.85;22.05;;;;;;;6.56;87.55078;95257.08;;;;
2019/04/30 05:16:55;;;;;;;30.85;22.05;;;;;;;6.56;87.55078;95257.08;;;;
2019/04/30 05:17:57;;;;;;;30.85;22.05;;;;;;;6.56;87.55078;95257.08;;;;
2019/04/30 05:18:58;;;;;;;26.79999;20.55;;;;;;;6.69;87.49316;95261.03;;;;
2019/04/30 05:19:59;;;;;;;26.79999;20.55;;;;;;;6.69;87.49316;95261.03;;;;
2019/04/30 05:21:00;;;;;;;26.79999;20.55;;;;;;;6.69;87.49316;95261.03;;;;
2019/04/30 05:22:01;;;;;;;26.79999;20.55;;;;;;;6.69;87.49316;95261.03;;;;
2019/04/30 05:23:02;;;;;;;26.79999;20.55;;;;;;;6.69;87.49316;95261.03;;;;
2019/04/30 05:24:03;;;;;;;26.79999;20.55;;;;;;;6.69;87.49316;95261.03;;;;
2019/04/30 05:25:04;;;;;;;26.79999;20.55;;;;;;;6.69;87.49316;95261.03;;;;
2019/04/30 05:26:06;;;;;;;26.79999;20.55;;;;;;;6.69;87.49316;95261.03;;;;
2019/04/30 05:27:07;;;;;;;26.79999;20.55;;;;;;;6.69;87.49316;95261.03;;;;
2019/04/30 05:28:08;;;;;;;26.79999;20.55;;;;;;;6.69;87.49316;95261.03;;;;
2019/04/30 05:29:09;;;;;;;26.79999;20.55;;;;;;;6.69;87.49316;95261.03;;;;
2019/04/30 05:30:10;;;;;;;25.55;19.4;;;;;;;6.75;87.57813;95251.73;;;;
2019/04/30 05:31:11;;;;;;;25.55;19.4;;;;;;;6.75;87.57813;95251.73;;;;
2019/04/30 05:32:12;;;;;;;25.55;19.4;;;;;;;6.75;87.57813;95251.73;;;;
2019/04/30 05:33:13;;;;;;;25.55;19.4;;;;;;;6.75;87.57813;95251.73;;;;
2019/04/30 05:34:14;;;;;;;25.55;19.4;;;;;;;6.75;87.57813;95251.73;;;;
2019/04/30 05:35:15;;;;;;;25.55;19.4;;;;;;;6.75;87.57813;95251.73;;;;
2019/04/30 05:36:16;;;;;;;25.55;19.4;;;;;;;6.75;87.57813;95251.73;;;;
2019/04/30 05:37:17;;;;;;;25.55;19.4;;;;;;;6.75;87.57813;95251.73;;;;
2019/04/30 05:38:18;;;;;;;25.55;19.4;;;;;;;6.75;87.57813;95251.73;;;;
2019/04/30 05:39:20;;;;;;;25.55;19.4;;;;;;;6.75;87.57813;95251.73;;;;
2019/04/30 05:40:21;;;;;;;27.3;19.15;;;;;;;6.74;87.59766;95255.46;;;;
2019/04/30 05:41:22;;;;;;;27.3;19.15;;;;;;;6.74;87.59766;95255.46;;;;
2019/04/30 05:42:23;;;;;;;27.3;19.15;;;;;;;6.74;87.59766;95255.46;;;;
2019/04/30 05:43:24;;;;;;;27.3;19.15;;;;;;;6.74;87.59766;95255.46;;;;
2019/04/30 05:44:25;;;;;;;27.3;19.15;;;;;;;6.74;87.59766;95255.46;;;;
2019/04/30 05:45:26;;;;;;;27.3;19.15;;;;;;;6.74;87.59766;95255.46;;;;
2019/04/30 05:46:27;;;;;;;27.3;19.15;;;;;;;6.74;87.59766;95255.46;;;;
2019/04/30 05:47:28;;;;;;;27.3;19.15;;;;;;;6.74;87.59766;95255.46;;;;
2019/04/30 05:48:29;;;;;;;27.3;19.15;;;;;;;6.74;87.59766;95255.46;;;;
2019/04/30 05:49:30;;;;;;;27.3;19.15;;;;;;;6.74;87.59766;95255.46;;;;
2019/04/30 05:50:31;;;;;;;27.3;19.15;;;;;;;6.74;87.59766;95255.46;;;;
2019/04/30 05:51:32;;;;;;;27.3;19.15;;;;;;;6.74;87.59766;95255.46;;;;
2019/04/30 05:52:33;;;;;;;27.3;19.15;;;;;;;6.74;87.59766;95255.46;;;;
2019/04/30 05:53:35;;;;;;;27.3;19.15;;;;;;;6.74;87.59766;95255.46;;;;
2019/04/30 05:54:36;;;;;;;27.3;19.15;;;;;;;6.74;87.59766;95255.46;;;;
2019/04/30 05:55:37;;;;;;;27.3;19.15;;;;;;;6.74;87.59766;95255.46;;;;
2019/04/30 05:56:38;;;;;;;27.3;19.15;;;;;;;6.74;87.59766;95255.46;;;;